sensor_id;sensor_type;location;lat;lon;timestamp;pressure;altitude;pressure_sealevel;temperature;humidity
14041;BME280;7095;51.388;6.196;2022-07-06T00:00:52;53401.69;;;-145.32;100.00
14041;BME280;7095;51.388;6.196;2022-07-06T00:03:20;53421.56;;;-145.32;100.00
14041;BME280;7095;51.388;6.196;2022-07-06T00:05:49;53449.41;;;-145.32;100.00
14041;BME280;7095;51.388;6.196;2022-07-06T00:08:18;53449.41;;;-145.32;100.00
14041;BME280;7095;51.388;6.196;2022-07-06T00:10:47;53441.44;;;-145.32;100.00
14041;BME280;7095;51.388;6.196;2022-07-06T00:13:16;53429.53;;;-145.32;100.00
14041;BME280;7095;51.388;6.196;2022-07-06T00:15:46;53443.44;;;-145.32;100.00
14041;BME280;7095;51.388;6.196;2022-07-06T00:18:15;53451.38;;;-145.32;100.00
14041;BME280;7095;51.388;6.196;2022-07-06T00:20:44;53431.50;;;-145.32;100.00
14041;BME280;7095;51.388;6.196;2022-07-06T00:23:13;53431.50;;;-145.32;100.00
14041;BME280;7095;51.388;6.196;2022-07-06T00:25:42;53435.47;;;-145.32;100.00
14041;BME280;7095;51.388;6.196;2022-07-06T00:28:11;53459.34;;;-145.32;100.00
14041;BME280;7095;51.388;6.196;2022-07-06T00:30:39;53427.53;;;-145.32;100.00
14041;BME280;7095;51.388;6.196;2022-07-06T00:33:10;53465.31;;;-145.32;100.00
14041;BME280;7095;51.388;6.196;2022-07-06T00:35:39;53447.41;;;-145.32;100.00
14041;BME280;7095;51.388;6.196;2022-07-06T00:38:07;53463.31;;;-145.32;100.00
14041;BME280;7095;51.388;6.196;2022-07-06T00:40:36;53463.31;;;-145.32;100.00
14041;BME280;7095;51.388;6.196;2022-07-06T00:43:05;53439.47;;;-145.32;100.00
14041;BME280;7095;51.388;6.196;2022-07-06T00:45:34;53449.41;;;-145.32;100.00
14041;BME280;7095;51.388;6.196;2022-07-06T00:48:03;53447.41;;;-145.32;100.00
14041;BME280;7095;51.388;6.196;2022-07-06T00:50:33;53467.28;;;-145.32;100.00
14041;BME280;7095;51.388;6.196;2022-07-06T00:53:06;53453.38;;;-145.32;100.00
14041;BME280;7095;51.388;6.196;2022-07-06T00:55:37;53475.25;;;-145.32;100.00
14041;BME280;7095;51.388;6.196;2022-07-06T00:58:08;53449.41;;;-145.32;100.00
14041;BME280;7095;51.388;6.196;2022-07-06T01:00:38;53479.22;;;-145.32;100.00
14041;BME280;7095;51.388;6.196;2022-07-06T01:03:12;53467.28;;;-145.32;100.00
14041;BME280;7095;51.388;6.196;2022-07-06T01:05:43;53473.25;;;-145.32;100.00
14041;BME280;7095;51.388;6.196;2022-07-06T01:08:12;53449.41;;;-145.32;100.00
14041;BME280;7095;51.388;6.196;2022-07-06T01:10:42;53483.19;;;-145.32;100.00
14041;BME280;7095;51.388;6.196;2022-07-06T01:13:12;53459.34;;;-145.32;100.00
14041;BME280;7095;51.388;6.196;2022-07-06T01:15:41;53507.06;;;-145.32;100.00
14041;BME280;7095;51.388;6.196;2022-07-06T01:18:10;53495.13;;;-145.32;100.00
14041;BME280;7095;51.388;6.196;2022-07-06T01:20:41;53467.28;;;-145.32;100.00
14041;BME280;7095;51.388;6.196;2022-07-06T01:23:10;53479.22;;;-145.32;100.00
14041;BME280;7095;51.388;6.196;2022-07-06T01:25:38;53465.31;;;-145.32;100.00
14041;BME280;7095;51.388;6.196;2022-07-06T01:28:07;53465.31;;;-145.32;100.00
14041;BME280;7095;51.388;6.196;2022-07-06T01:30:36;53469.28;;;-145.32;100.00
14041;BME280;7095;51.388;6.196;2022-07-06T01:33:05;53483.19;;;-145.32;100.00
14041;BME280;7095;51.388;6.196;2022-07-06T01:35:35;53453.38;;;-145.32;100.00
14041;BME280;7095;51.388;6.196;2022-07-06T01:38:07;53455.38;;;-145.32;100.00
14041;BME280;7095;51.388;6.196;2022-07-06T01:40:36;53487.19;;;-145.32;100.00
14041;BME280;7095;51.388;6.196;2022-07-06T01:43:04;53505.06;;;-145.32;100.00
14041;BME280;7095;51.388;6.196;2022-07-06T01:45:33;53453.38;;;-145.32;100.00
14041;BME280;7095;51.388;6.196;2022-07-06T01:48:05;53495.13;;;-145.32;100.00
14041;BME280;7095;51.388;6.196;2022-07-06T01:50:34;53495.13;;;-145.32;100.00
14041;BME280;7095;51.388;6.196;2022-07-06T01:53:02;53493.13;;;-145.32;100.00
14041;BME280;7095;51.388;6.196;2022-07-06T01:55:33;53473.25;;;-145.32;100.00
14041;BME280;7095;51.388;6.196;2022-07-06T01:58:02;53445.44;;;-145.32;100.00
14041;BME280;7095;51.388;6.196;2022-07-06T02:00:31;53457.34;;;-145.32;100.00
14041;BME280;7095;51.388;6.196;2022-07-06T02:02:59;53481.22;;;-145.32;100.00
14041;BME280;7095;51.388;6.196;2022-07-06T02:05:28;53489.16;;;-145.32;100.00
14041;BME280;7095;51.388;6.196;2022-07-06T02:07:57;53461.31;;;-145.32;100.00
14041;BME280;7095;51.388;6.196;2022-07-06T02:10:25;53489.16;;;-145.32;100.00
14041;BME280;7095;51.388;6.196;2022-07-06T02:12:55;53475.25;;;-145.32;100.00
14041;BME280;7095;51.388;6.196;2022-07-06T02:15:24;53479.22;;;-145.32;100.00
14041;BME280;7095;51.388;6.196;2022-07-06T02:17:52;53499.09;;;-145.32;100.00
14041;BME280;7095;51.388;6.196;2022-07-06T02:20:24;53463.31;;;-145.32;100.00
14041;BME280;7095;51.388;6.196;2022-07-06T02:22:52;53491.16;;;-145.32;100.00
14041;BME280;7095;51.388;6.196;2022-07-06T02:25:21;53489.16;;;-145.32;100.00
14041;BME280;7095;51.388;6.196;2022-07-06T02:27:50;53475.25;;;-145.32;100.00
14041;BME280;7095;51.388;6.196;2022-07-06T02:30:20;53475.25;;;-145.32;100.00
14041;BME280;7095;51.388;6.196;2022-07-06T02:32:49;53530.91;;;-145.32;100.00
14041;BME280;7095;51.388;6.196;2022-07-06T02:35:18;53511.03;;;-145.32;100.00
14041;BME280;7095;51.388;6.196;2022-07-06T02:37:47;53507.06;;;-145.32;100.00
14041;BME280;7095;51.388;6.196;2022-07-06T02:40:16;53495.13;;;-145.32;100.00
14041;BME280;7095;51.388;6.196;2022-07-06T02:42:45;53530.91;;;-145.32;100.00
14041;BME280;7095;51.388;6.196;2022-07-06T02:45:14;53509.03;;;-145.32;100.00
14041;BME280;7095;51.388;6.196;2022-07-06T02:47:44;53507.06;;;-145.32;100.00
14041;BME280;7095;51.388;6.196;2022-07-06T02:50:13;53515.00;;;-145.32;100.00
14041;BME280;7095;51.388;6.196;2022-07-06T02:52:42;53515.00;;;-145.32;100.00
14041;BME280;7095;51.388;6.196;2022-07-06T02:55:10;53493.13;;;-145.32;100.00
14041;BME280;7095;51.388;6.196;2022-07-06T02:57:40;53497.13;;;-145.32;100.00
14041;BME280;7095;51.388;6.196;2022-07-06T03:00:11;53522.97;;;-145.32;100.00
14041;BME280;7095;51.388;6.196;2022-07-06T03:02:42;53517.00;;;-145.32;100.00
14041;BME280;7095;51.388;6.196;2022-07-06T03:05:13;53479.22;;;-145.32;100.00
14041;BME280;7095;51.388;6.196;2022-07-06T03:07:42;53511.03;;;-145.32;100.00
14041;BME280;7095;51.388;6.196;2022-07-06T03:10:11;53518.97;;;-145.32;100.00
14041;BME280;7095;51.388;6.196;2022-07-06T03:12:40;53491.16;;;-145.32;100.00
14041;BME280;7095;51.388;6.196;2022-07-06T03:15:09;53524.94;;;-145.32;100.00
14041;BME280;7095;51.388;6.196;2022-07-06T03:17:43;53495.13;;;-145.32;100.00
14041;BME280;7095;51.388;6.196;2022-07-06T03:20:15;53536.88;;;-145.32;100.00
14041;BME280;7095;51.388;6.196;2022-07-06T03:22:45;53542.84;;;-145.32;100.00
14041;BME280;7095;51.388;6.196;2022-07-06T03:25:15;53558.75;;;-145.32;100.00
14041;BME280;7095;51.388;6.196;2022-07-06T03:27:44;53515.00;;;-145.32;100.00
14041;BME280;7095;51.388;6.196;2022-07-06T03:30:16;53518.97;;;-145.32;100.00
14041;BME280;7095;51.388;6.196;2022-07-06T03:32:50;53548.81;;;-145.32;100.00
14041;BME280;7095;51.388;6.196;2022-07-06T03:35:22;53538.88;;;-145.32;100.00
14041;BME280;7095;51.388;6.196;2022-07-06T03:37:52;53511.03;;;-145.32;100.00
14041;BME280;7095;51.388;6.196;2022-07-06T03:40:23;53511.03;;;-145.32;100.00
14041;BME280;7095;51.388;6.196;2022-07-06T03:42:52;53520.97;;;-145.32;100.00
14041;BME280;7095;51.388;6.196;2022-07-06T03:45:21;53515.00;;;-145.32;100.00
14041;BME280;7095;51.388;6.196;2022-07-06T03:47:50;53534.88;;;-145.32;100.00
14041;BME280;7095;51.388;6.196;2022-07-06T03:50:19;53503.06;;;-145.32;100.00
14041;BME280;7095;51.388;6.196;2022-07-06T03:52:50;53528.94;;;-145.32;100.00
14041;BME280;7095;51.388;6.196;2022-07-06T03:55:19;53548.81;;;-145.32;100.00
14041;BME280;7095;51.388;6.196;2022-07-06T03:57:53;53528.94;;;-145.32;100.00
14041;BME280;7095;51.388;6.196;2022-07-06T04:00:23;53515.00;;;-145.32;100.00
14041;BME280;7095;51.388;6.196;2022-07-06T04:03:00;53554.78;;;-145.32;100.00
14041;BME280;7095;51.388;6.196;2022-07-06T04:05:33;53546.81;;;-145.32;100.00
14041;BME280;7095;51.388;6.196;2022-07-06T04:08:03;53540.84;;;-145.32;100.00
14041;BME280;7095;51.388;6.196;2022-07-06T04:10:38;53534.88;;;-145.32;100.00
14041;BME280;7095;51.388;6.196;2022-07-06T04:13:06;53548.81;;;-145.32;100.00
14041;BME280;7095;51.388;6.196;2022-07-06T04:15:35;53532.91;;;-145.32;100.00
14041;BME280;7095;51.388;6.196;2022-07-06T04:18:05;53548.81;;;-145.32;100.00
14041;BME280;7095;51.388;6.196;2022-07-06T04:20:43;53526.94;;;-145.32;100.00
14041;BME280;7095;51.388;6.196;2022-07-06T04:23:14;53530.91;;;-145.32;100.00
14041;BME280;7095;51.388;6.196;2022-07-06T04:25:47;53550.78;;;-145.32;100.00
14041;BME280;7095;51.388;6.196;2022-07-06T04:28:16;53511.03;;;-145.32;100.00
14041;BME280;7095;51.388;6.196;2022-07-06T04:30:45;53489.16;;;-145.32;100.00
14041;BME280;7095;51.388;6.196;2022-07-06T04:33:17;53499.09;;;-145.32;100.00
14041;BME280;7095;51.388;6.196;2022-07-06T04:35:48;53491.16;;;-145.32;100.00
14041;BME280;7095;51.388;6.196;2022-07-06T04:38:21;53501.09;;;-145.32;100.00
14041;BME280;7095;51.388;6.196;2022-07-06T04:40:52;53475.25;;;-145.32;100.00
14041;BME280;7095;51.388;6.196;2022-07-06T04:43:21;53481.22;;;-145.32;100.00
14041;BME280;7095;51.388;6.196;2022-07-06T04:45:50;53489.16;;;-145.32;100.00
14041;BME280;7095;51.388;6.196;2022-07-06T04:48:19;53467.28;;;-145.32;100.00
14041;BME280;7095;51.388;6.196;2022-07-06T04:50:49;53489.16;;;-145.32;100.00
14041;BME280;7095;51.388;6.196;2022-07-06T04:53:25;53493.13;;;-145.32;100.00
14041;BME280;7095;51.388;6.196;2022-07-06T04:55:54;53487.19;;;-145.32;100.00
14041;BME280;7095;51.388;6.196;2022-07-06T04:58:24;53477.22;;;-145.32;100.00
14041;BME280;7095;51.388;6.196;2022-07-06T05:00:53;53489.16;;;-145.32;100.00
14041;BME280;7095;51.388;6.196;2022-07-06T05:03:24;53475.25;;;-145.32;100.00
14041;BME280;7095;51.388;6.196;2022-07-06T05:05:53;53455.38;;;-145.32;100.00
14041;BME280;7095;51.388;6.196;2022-07-06T05:08:22;53449.41;;;-145.32;100.00
14041;BME280;7095;51.388;6.196;2022-07-06T05:10:53;53455.38;;;-145.32;100.00
14041;BME280;7095;51.388;6.196;2022-07-06T05:13:23;53423.56;;;-145.32;100.00
14041;BME280;7095;51.388;6.196;2022-07-06T05:15:52;53459.34;;;-145.32;100.00
14041;BME280;7095;51.388;6.196;2022-07-06T05:18:20;53461.31;;;-145.32;100.00
14041;BME280;7095;51.388;6.196;2022-07-06T05:20:50;53441.44;;;-145.32;100.00
14041;BME280;7095;51.388;6.196;2022-07-06T05:23:19;53435.47;;;-145.32;100.00
14041;BME280;7095;51.388;6.196;2022-07-06T05:25:48;53459.34;;;-145.32;100.00
14041;BME280;7095;51.388;6.196;2022-07-06T05:28:18;53441.44;;;-145.32;100.00
14041;BME280;7095;51.388;6.196;2022-07-06T05:30:48;53433.50;;;-145.32;100.00
14041;BME280;7095;51.388;6.196;2022-07-06T05:33:17;53439.47;;;-145.32;100.00
14041;BME280;7095;51.388;6.196;2022-07-06T05:35:46;53441.44;;;-145.32;100.00
14041;BME280;7095;51.388;6.196;2022-07-06T05:38:22;53433.50;;;-145.32;100.00
14041;BME280;7095;51.388;6.196;2022-07-06T05:40:52;53449.41;;;-145.32;100.00
14041;BME280;7095;51.388;6.196;2022-07-06T05:43:23;53427.53;;;-145.32;100.00
14041;BME280;7095;51.388;6.196;2022-07-06T05:45:53;53435.47;;;-145.32;100.00
14041;BME280;7095;51.388;6.196;2022-07-06T05:48:25;53411.63;;;-145.32;100.00
14041;BME280;7095;51.388;6.196;2022-07-06T05:51:12;53455.38;;;-145.32;100.00
14041;BME280;7095;51.388;6.196;2022-07-06T05:53:42;53431.50;;;-145.32;100.00
14041;BME280;7095;51.388;6.196;2022-07-06T05:56:11;53435.47;;;-145.32;100.00
14041;BME280;7095;51.388;6.196;2022-07-06T05:58:41;53433.50;;;-145.32;100.00
14041;BME280;7095;51.388;6.196;2022-07-06T06:01:10;53419.59;;;-145.32;100.00
14041;BME280;7095;51.388;6.196;2022-07-06T06:03:41;53403.69;;;-145.32;100.00
14041;BME280;7095;51.388;6.196;2022-07-06T06:06:13;53419.59;;;-145.32;100.00
14041;BME280;7095;51.388;6.196;2022-07-06T06:08:42;53399.69;;;-145.32;100.00
14041;BME280;7095;51.388;6.196;2022-07-06T06:11:11;53425.53;;;-145.32;100.00
14041;BME280;7095;51.388;6.196;2022-07-06T06:13:42;53391.75;;;-145.32;100.00
14041;BME280;7095;51.388;6.196;2022-07-06T06:16:11;53397.72;;;-145.32;100.00
14041;BME280;7095;51.388;6.196;2022-07-06T06:18:40;53391.75;;;-145.32;100.00
14041;BME280;7095;51.388;6.196;2022-07-06T06:21:09;53381.81;;;-145.32;100.00
14041;BME280;7095;51.388;6.196;2022-07-06T06:23:38;53381.81;;;-145.32;100.00
14041;BME280;7095;51.388;6.196;2022-07-06T06:26:07;53421.56;;;-145.32;100.00
14041;BME280;7095;51.388;6.196;2022-07-06T06:28:36;53381.81;;;-145.32;100.00
14041;BME280;7095;51.388;6.196;2022-07-06T06:31:06;53391.75;;;-145.32;100.00
14041;BME280;7095;51.388;6.196;2022-07-06T06:33:35;53365.91;;;-145.32;100.00
14041;BME280;7095;51.388;6.196;2022-07-06T06:36:04;53316.22;;;-145.32;100.00
14041;BME280;7095;51.388;6.196;2022-07-06T06:38:33;53334.09;;;-145.32;100.00
14041;BME280;7095;51.388;6.196;2022-07-06T06:41:01;53336.09;;;-145.32;100.00
14041;BME280;7095;51.388;6.196;2022-07-06T06:43:30;53324.16;;;-145.32;100.00
14041;BME280;7095;51.388;6.196;2022-07-06T06:46:09;53353.97;;;-145.32;100.00
14041;BME280;7095;51.388;6.196;2022-07-06T06:48:37;53308.25;;;-145.32;100.00
14041;BME280;7095;51.388;6.196;2022-07-06T06:51:06;53314.22;;;-145.32;100.00
14041;BME280;7095;51.388;6.196;2022-07-06T06:53:35;53312.22;;;-145.32;100.00
14041;BME280;7095;51.388;6.196;2022-07-06T06:56:06;53274.47;;;-145.32;100.00
14041;BME280;7095;51.388;6.196;2022-07-06T06:58:35;53324.16;;;-145.32;100.00
14041;BME280;7095;51.388;6.196;2022-07-06T07:01:25;53340.06;;;-145.32;100.00
14041;BME280;7095;51.388;6.196;2022-07-06T07:03:55;53328.13;;;-145.32;100.00
14041;BME280;7095;51.388;6.196;2022-07-06T07:06:23;53290.38;;;-145.32;100.00
14041;BME280;7095;51.388;6.196;2022-07-06T07:08:52;53304.28;;;-145.32;100.00
14041;BME280;7095;51.388;6.196;2022-07-06T07:11:22;53294.34;;;-145.32;100.00
14041;BME280;7095;51.388;6.196;2022-07-06T07:13:53;53296.31;;;-145.32;100.00
14041;BME280;7095;51.388;6.196;2022-07-06T07:16:22;53272.47;;;-145.32;100.00
14041;BME280;7095;51.388;6.196;2022-07-06T07:18:52;53326.16;;;-145.32;100.00
14041;BME280;7095;51.388;6.196;2022-07-06T07:21:21;53330.13;;;-145.32;100.00
14041;BME280;7095;51.388;6.196;2022-07-06T07:23:51;53304.28;;;-145.32;100.00
14041;BME280;7095;51.388;6.196;2022-07-06T07:26:19;53328.13;;;-145.32;100.00
14041;BME280;7095;51.388;6.196;2022-07-06T07:28:48;53308.25;;;-145.32;100.00
14041;BME280;7095;51.388;6.196;2022-07-06T07:31:17;53288.38;;;-145.32;100.00
14041;BME280;7095;51.388;6.196;2022-07-06T07:33:45;53312.22;;;-145.32;100.00
14041;BME280;7095;51.388;6.196;2022-07-06T07:36:15;53282.41;;;-145.32;100.00
14041;BME280;7095;51.388;6.196;2022-07-06T07:38:44;53328.13;;;-145.32;100.00
14041;BME280;7095;51.388;6.196;2022-07-06T07:41:12;53290.38;;;-145.32;100.00
14041;BME280;7095;51.388;6.196;2022-07-06T07:43:41;53312.22;;;-145.32;100.00
14041;BME280;7095;51.388;6.196;2022-07-06T07:46:10;53332.09;;;-145.32;100.00
14041;BME280;7095;51.388;6.196;2022-07-06T07:48:38;53336.09;;;-145.32;100.00
14041;BME280;7095;51.388;6.196;2022-07-06T07:51:08;53328.13;;;-145.32;100.00
14041;BME280;7095;51.388;6.196;2022-07-06T07:53:38;53330.13;;;-145.32;100.00
14041;BME280;7095;51.388;6.196;2022-07-06T07:56:06;53300.31;;;-145.32;100.00
14041;BME280;7095;51.388;6.196;2022-07-06T07:58:35;53330.13;;;-145.32;100.00
14041;BME280;7095;51.388;6.196;2022-07-06T08:01:05;53320.19;;;-145.32;100.00
14041;BME280;7095;51.388;6.196;2022-07-06T08:03:34;53324.16;;;-145.32;100.00
14041;BME280;7095;51.388;6.196;2022-07-06T08:06:03;53308.25;;;-145.32;100.00
14041;BME280;7095;51.388;6.196;2022-07-06T08:08:31;53302.28;;;-145.32;100.00
14041;BME280;7095;51.388;6.196;2022-07-06T08:11:02;53278.44;;;-145.32;100.00
14041;BME280;7095;51.388;6.196;2022-07-06T08:13:46;53284.41;;;-145.32;100.00
14041;BME280;7095;51.388;6.196;2022-07-06T08:16:15;53248.63;;;-145.32;100.00
14041;BME280;7095;51.388;6.196;2022-07-06T08:18:44;53268.50;;;-145.32;100.00
14041;BME280;7095;51.388;6.196;2022-07-06T08:21:13;53294.34;;;-145.32;100.00
14041;BME280;7095;51.388;6.196;2022-07-06T08:23:52;53280.41;;;-145.32;100.00
14041;BME280;7095;51.388;6.196;2022-07-06T08:26:23;53296.31;;;-145.32;100.00
14041;BME280;7095;51.388;6.196;2022-07-06T08:28:52;53260.53;;;-145.32;100.00
14041;BME280;7095;51.388;6.196;2022-07-06T08:31:21;53302.28;;;-145.32;100.00
14041;BME280;7095;51.388;6.196;2022-07-06T08:34:09;53284.41;;;-145.32;100.00
14041;BME280;7095;51.388;6.196;2022-07-06T08:36:38;53288.38;;;-145.32;100.00
14041;BME280;7095;51.388;6.196;2022-07-06T08:39:07;53292.34;;;-145.32;100.00
14041;BME280;7095;51.388;6.196;2022-07-06T08:41:38;53258.56;;;-145.32;100.00
14041;BME280;7095;51.388;6.196;2022-07-06T08:44:09;53252.59;;;-145.32;100.00
14041;BME280;7095;51.388;6.196;2022-07-06T08:46:38;53260.53;;;-145.32;100.00
14041;BME280;7095;51.388;6.196;2022-07-06T08:49:08;53288.38;;;-145.32;100.00
14041;BME280;7095;51.388;6.196;2022-07-06T08:51:40;53288.38;;;-145.32;100.00
14041;BME280;7095;51.388;6.196;2022-07-06T08:54:10;53262.53;;;-145.32;100.00
14041;BME280;7095;51.388;6.196;2022-07-06T08:56:41;53274.47;;;-145.32;100.00
14041;BME280;7095;51.388;6.196;2022-07-06T08:59:15;53264.53;;;-145.32;100.00
14041;BME280;7095;51.388;6.196;2022-07-06T09:01:47;53272.47;;;-145.32;95.64
14041;BME280;7095;51.388;6.196;2022-07-06T09:04:17;53242.66;;;-145.32;94.53
14041;BME280;7095;51.388;6.196;2022-07-06T09:06:47;53252.59;;;-145.32;88.38
14041;BME280;7095;51.388;6.196;2022-07-06T09:09:19;53236.69;;;-145.32;82.52
14041;BME280;7095;51.388;6.196;2022-07-06T09:11:51;53232.72;;;-145.32;77.49
14041;BME280;7095;51.388;6.196;2022-07-06T09:14:19;53244.63;;;-145.32;75.81
14041;BME280;7095;51.388;6.196;2022-07-06T09:16:52;53244.63;;;-145.32;73.94
14041;BME280;7095;51.388;6.196;2022-07-06T09:19:30;53274.47;;;-145.32;79.35
14041;BME280;7095;51.388;6.196;2022-07-06T09:21:59;53268.50;;;-145.32;78.83
14041;BME280;7095;51.388;6.196;2022-07-06T09:24:28;53228.75;;;-145.32;81.87
14041;BME280;7095;51.388;6.196;2022-07-06T09:27:00;53254.59;;;-145.32;77.57
14041;BME280;7095;51.388;6.196;2022-07-06T09:29:32;53224.75;;;-145.32;76.04
14041;BME280;7095;51.388;6.196;2022-07-06T09:32:02;53220.78;;;-145.32;78.30
14041;BME280;7095;51.388;6.196;2022-07-06T09:34:43;53188.97;;;-145.32;70.77
14041;BME280;7095;51.388;6.196;2022-07-06T09:37:15;53206.88;;;-145.32;63.31
14041;BME280;7095;51.388;6.196;2022-07-06T09:39:52;53185.00;;;-145.32;57.92
14041;BME280;7095;51.388;6.196;2022-07-06T09:42:25;53212.84;;;-145.32;58.80
14041;BME280;7095;51.388;6.196;2022-07-06T09:44:54;53194.94;;;-145.32;63.87
14041;BME280;7095;51.388;6.196;2022-07-06T09:47:23;53210.84;;;-145.32;62.55
14041;BME280;7095;51.388;6.196;2022-07-06T09:49:55;53202.91;;;-145.32;61.93
14041;BME280;7095;51.388;6.196;2022-07-06T09:52:24;53220.78;;;-145.32;61.82
14041;BME280;7095;51.388;6.196;2022-07-06T09:54:53;53206.88;;;-145.32;61.16
14041;BME280;7095;51.388;6.196;2022-07-06T09:57:22;53220.78;;;-145.32;60.87
14041;BME280;7095;51.388;6.196;2022-07-06T09:59:52;53210.84;;;-145.32;58.86
14041;BME280;7095;51.388;6.196;2022-07-06T10:02:21;53240.66;;;-145.32;58.75
14041;BME280;7095;51.388;6.196;2022-07-06T10:04:51;53212.84;;;-145.32;57.02
14041;BME280;7095;51.388;6.196;2022-07-06T10:07:22;53212.84;;;-145.32;57.06
14041;BME280;7095;51.388;6.196;2022-07-06T10:09:52;53192.94;;;-145.32;53.58
14041;BME280;7095;51.388;6.196;2022-07-06T10:12:21;53202.91;;;-145.32;51.88
14041;BME280;7095;51.388;6.196;2022-07-06T10:14:52;53198.91;;;-145.32;48.96
14041;BME280;7095;51.388;6.196;2022-07-06T10:17:21;53232.72;;;-145.32;48.87
14041;BME280;7095;51.388;6.196;2022-07-06T10:19:51;53224.75;;;-145.32;49.27
14041;BME280;7095;51.388;6.196;2022-07-06T10:22:20;53188.97;;;-145.32;50.29
14041;BME280;7095;51.388;6.196;2022-07-06T10:24:49;53183.00;;;-145.32;50.38
14041;BME280;7095;51.388;6.196;2022-07-06T10:27:20;53200.91;;;-145.32;49.63
14041;BME280;7095;51.388;6.196;2022-07-06T10:29:48;53198.91;;;-145.32;49.91
14041;BME280;7095;51.388;6.196;2022-07-06T10:32:19;53220.78;;;-145.32;49.88
14041;BME280;7095;51.388;6.196;2022-07-06T10:34:49;53216.81;;;-145.32;49.86
14041;BME280;7095;51.388;6.196;2022-07-06T10:37:23;53212.84;;;-145.32;48.88
14041;BME280;7095;51.388;6.196;2022-07-06T10:39:53;53173.06;;;-145.32;48.35
14041;BME280;7095;51.388;6.196;2022-07-06T10:42:45;53183.00;;;-145.32;46.34
14041;BME280;7095;51.388;6.196;2022-07-06T10:45:20;53218.81;;;-145.32;46.23
14041;BME280;7095;51.388;6.196;2022-07-06T10:50:54;53208.84;;;-145.32;45.85
14041;BME280;7095;51.388;6.196;2022-07-06T10:53:24;53188.97;;;-145.32;46.46
14041;BME280;7095;51.388;6.196;2022-07-06T10:55:54;53200.91;;;-145.32;46.51
14041;BME280;7095;51.388;6.196;2022-07-06T10:58:41;53200.91;;;-145.32;47.79
14041;BME280;7095;51.388;6.196;2022-07-06T11:01:15;53153.19;;;-145.32;46.56
14041;BME280;7095;51.388;6.196;2022-07-06T11:03:46;53143.25;;;-145.32;47.14
14041;BME280;7095;51.388;6.196;2022-07-06T11:06:18;53183.00;;;-145.32;46.33
14041;BME280;7095;51.388;6.196;2022-07-06T11:08:52;53185.00;;;-145.32;48.51
14041;BME280;7095;51.388;6.196;2022-07-06T11:11:24;53157.19;;;-145.32;47.15
14041;BME280;7095;51.388;6.196;2022-07-06T11:13:56;53165.13;;;-145.32;47.00
14041;BME280;7095;51.388;6.196;2022-07-06T11:16:28;53149.22;;;-145.32;45.99
14041;BME280;7095;51.388;6.196;2022-07-06T11:19:04;53145.25;;;-145.32;45.18
14041;BME280;7095;51.388;6.196;2022-07-06T11:21:40;53133.31;;;-145.32;47.31
14041;BME280;7095;51.388;6.196;2022-07-06T11:24:13;53177.06;;;-145.32;45.19
14041;BME280;7095;51.388;6.196;2022-07-06T11:26:46;53153.19;;;-145.32;44.89
14041;BME280;7095;51.388;6.196;2022-07-06T11:29:18;53153.19;;;-145.32;44.15
14041;BME280;7095;51.388;6.196;2022-07-06T11:31:50;53165.13;;;-145.32;43.35
14041;BME280;7095;51.388;6.196;2022-07-06T11:34:23;53173.06;;;-145.32;43.94
14041;BME280;7095;51.388;6.196;2022-07-06T11:36:56;53169.09;;;-145.32;44.65
14041;BME280;7095;51.388;6.196;2022-07-06T11:39:26;53171.09;;;-145.32;44.91
14041;BME280;7095;51.388;6.196;2022-07-06T11:42:00;53194.94;;;-145.32;44.67
14041;BME280;7095;51.388;6.196;2022-07-06T11:44:31;53216.81;;;-145.32;45.05
14041;BME280;7095;51.388;6.196;2022-07-06T11:47:00;53196.94;;;-145.32;44.64
14041;BME280;7095;51.388;6.196;2022-07-06T11:49:31;53165.13;;;-145.32;43.92
14041;BME280;7095;51.388;6.196;2022-07-06T11:52:07;53153.19;;;-145.32;42.88
14041;BME280;7095;51.388;6.196;2022-07-06T11:54:36;53177.06;;;-145.32;43.21
14041;BME280;7095;51.388;6.196;2022-07-06T11:57:08;53165.13;;;-145.32;42.46
14041;BME280;7095;51.388;6.196;2022-07-06T11:59:39;53161.16;;;-145.32;42.67
14041;BME280;7095;51.388;6.196;2022-07-06T12:02:09;53177.06;;;-145.32;42.37
14041;BME280;7095;51.388;6.196;2022-07-06T12:04:40;53149.22;;;-145.32;41.69
14041;BME280;7095;51.388;6.196;2022-07-06T12:07:12;53121.41;;;-145.32;40.33
14041;BME280;7095;51.388;6.196;2022-07-06T12:09:42;53125.38;;;-145.32;39.99
14041;BME280;7095;51.388;6.196;2022-07-06T12:12:12;53153.19;;;-145.32;39.84
14041;BME280;7095;51.388;6.196;2022-07-06T12:14:42;53133.31;;;-145.32;40.09
14041;BME280;7095;51.388;6.196;2022-07-06T12:17:12;53141.28;;;-145.32;39.23
14041;BME280;7095;51.388;6.196;2022-07-06T12:19:42;53171.09;;;-145.32;40.30
14041;BME280;7095;51.388;6.196;2022-07-06T12:22:12;53143.25;;;-145.32;40.08
14041;BME280;7095;51.388;6.196;2022-07-06T12:24:43;53173.06;;;-145.32;40.54
14041;BME280;7095;51.388;6.196;2022-07-06T12:27:14;53113.44;;;-145.32;39.63
14041;BME280;7095;51.388;6.196;2022-07-06T12:29:45;53113.44;;;-145.32;38.98
14041;BME280;7095;51.388;6.196;2022-07-06T12:32:15;53135.31;;;-145.32;39.70
14041;BME280;7095;51.388;6.196;2022-07-06T12:34:44;53137.28;;;-145.32;40.07
14041;BME280;7095;51.388;6.196;2022-07-06T12:37:15;53085.63;;;-145.32;38.72
14041;BME280;7095;51.388;6.196;2022-07-06T12:39:44;53063.75;;;-145.32;38.62
14041;BME280;7095;51.388;6.196;2022-07-06T12:42:15;53041.88;;;-145.32;37.49
14041;BME280;7095;51.388;6.196;2022-07-06T12:44:48;53079.66;;;-145.32;37.09
14041;BME280;7095;51.388;6.196;2022-07-06T12:47:18;53029.94;;;-145.32;36.51
14041;BME280;7095;51.388;6.196;2022-07-06T12:49:52;53027.97;;;-145.32;35.81
14041;BME280;7095;51.388;6.196;2022-07-06T12:52:33;53029.94;;;-145.32;36.32
14041;BME280;7095;51.388;6.196;2022-07-06T12:55:02;53113.44;;;-145.32;35.40
14041;BME280;7095;51.388;6.196;2022-07-06T12:57:43;53033.94;;;-145.32;35.56
14041;BME280;7095;51.388;6.196;2022-07-06T13:00:12;53131.34;;;-145.32;35.30
14041;BME280;7095;51.388;6.196;2022-07-06T13:02:44;53069.72;;;-145.32;35.40